Time;durP1;ratioP1;P1;durP2;ratioP2;P2;SDS_P1;SDS_P2;PMS_P1;PMS_P2;Temp;Humidity;BMP_temperature;BMP_pressure;BME280_temperature;BME280_humidity;BME280_pressure;Samples;Min_cycle;Max_cycle;Signal;HPM_P1;HPM_P2
2022/08/30 00:02:19;;;;;;;1.40;1.30;;;14.90;99.90;;;;;;5113831;28;20447;-59
2022/08/30 00:04:47;;;;;;;2.57;1.70;;;14.90;99.90;;;;;;5113764;28;20547;-59
2022/08/30 00:07:16;;;;;;;3.07;1.47;;;14.90;99.90;;;;;;5113806;28;20895;-59
2022/08/30 00:09:43;;;;;;;2.20;1.90;;;14.90;99.90;;;;;;5113656;28;20493;-59
2022/08/30 00:12:10;;;;;;;2.00;1.70;;;14.90;99.90;;;;;;5113704;28;20446;-59
2022/08/30 00:14:37;;;;;;;2.57;1.50;;;14.90;99.90;;;;;;5113330;28;20848;-59
2022/08/30 00:17:05;;;;;;;2.40;1.50;;;14.90;99.90;;;;;;5113312;28;20528;-59
2022/08/30 00:19:32;;;;;;;1.80;1.57;;;14.80;99.90;;;;;;5113310;28;20457;-59
2022/08/30 00:21:59;;;;;;;2.00;1.43;;;14.80;99.90;;;;;;5113630;28;20776;-59
2022/08/30 00:24:28;;;;;;;1.70;1.60;;;14.80;99.90;;;;;;5113663;28;20526;-59
2022/08/30 00:26:55;;;;;;;2.33;2.07;;;14.80;99.90;;;;;;5117836;28;20447;-59
2022/08/30 00:29:22;;;;;;;1.70;1.47;;;14.70;99.90;;;;;;5117865;28;20553;-59
2022/08/30 00:31:50;;;;;;;2.00;1.70;;;14.70;99.90;;;;;;5117538;28;20477;-59
2022/08/30 00:34:17;;;;;;;2.10;1.97;;;14.70;99.90;;;;;;5117516;28;20567;-59
2022/08/30 00:36:44;;;;;;;2.13;1.87;;;14.70;99.90;;;;;;5117542;28;20521;-59
2022/08/30 00:39:11;;;;;;;3.63;1.90;;;14.60;99.90;;;;;;5117616;28;20552;-59
2022/08/30 00:41:40;;;;;;;2.53;1.70;;;14.60;99.90;;;;;;5117619;28;20455;-60
2022/08/30 00:44:08;;;;;;;1.73;1.50;;;14.60;99.90;;;;;;5117587;28;20591;-59
2022/08/30 00:46:36;;;;;;;1.93;1.63;;;14.60;99.90;;;;;;5117132;28;20446;-59
2022/08/30 00:49:06;;;;;;;2.30;1.63;;;14.50;99.90;;;;;;5117084;28;20666;-59
2022/08/30 00:51:34;;;;;;;3.17;1.87;;;14.50;99.90;;;;;;5133871;28;20425;-59
2022/08/30 00:54:02;;;;;;;2.40;1.83;;;14.50;99.90;;;;;;5119047;28;20524;-59
2022/08/30 00:56:30;;;;;;;5.10;1.73;;;14.50;99.90;;;;;;5139321;22;20504;-57
2022/08/30 00:59:02;;;;;;;5.17;1.77;;;14.60;99.90;;;;;;5096760;28;20472;-57
2022/08/30 01:01:30;;;;;;;2.20;1.80;;;14.60;99.90;;;;;;5097018;28;20517;-57
2022/08/30 01:03:58;;;;;;;2.97;1.87;;;14.50;99.90;;;;;;5097692;28;20495;-56
2022/08/30 01:06:26;;;;;;;5.10;1.77;;;14.50;99.90;;;;;;5099973;28;20544;-56
2022/08/30 01:08:54;;;;;;;2.07;1.60;;;14.50;99.90;;;;;;5117334;28;20437;-56
2022/08/30 01:11:24;;;;;;;4.10;2.30;;;14.50;99.90;;;;;;5117157;28;20540;-58
2022/08/30 01:13:53;;;;;;;4.77;2.13;;;14.50;99.90;;;;;;5117083;28;20816;-56
2022/08/30 01:16:24;;;;;;;4.53;1.80;;;14.40;99.90;;;;;;5117079;28;20533;-57
2022/08/30 01:18:56;;;;;;;2.70;2.43;;;14.40;99.90;;;;;;5117455;28;20438;-57
2022/08/30 01:21:31;;;;;;;2.23;2.03;;;14.40;99.90;;;;;;5117460;28;20429;-56
2022/08/30 01:24:00;;;;;;;2.43;2.23;;;14.40;99.90;;;;;;5117032;28;20460;-56
2022/08/30 01:26:29;;;;;;;2.73;2.00;;;14.40;99.90;;;;;;5116394;28;20936;-56
2022/08/30 01:29:01;;;;;;;1.70;1.60;;;14.40;99.90;;;;;;5116824;28;20520;-57
2022/08/30 01:31:29;;;;;;;2.10;1.90;;;14.30;99.90;;;;;;5116683;28;20923;-57
2022/08/30 01:33:56;;;;;;;2.17;2.00;;;14.40;99.90;;;;;;5116341;28;20541;-57
2022/08/30 01:36:25;;;;;;;1.80;1.70;;;14.30;99.90;;;;;;5115800;28;21063;-57
2022/08/30 01:38:54;;;;;;;2.43;2.03;;;14.30;99.90;;;;;;5116120;28;20445;-57
2022/08/30 01:41:25;;;;;;;6.57;2.53;;;14.30;99.90;;;;;;5116493;28;20457;-57
2022/08/30 01:43:55;;;;;;;2.50;2.30;;;14.30;99.90;;;;;;5116572;28;20425;-57
2022/08/30 01:46:25;;;;;;;2.93;2.03;;;14.20;99.90;;;;;;5116314;28;20872;-58
2022/08/30 01:48:53;;;;;;;2.20;2.03;;;14.20;99.90;;;;;;5116324;28;20921;-57
2022/08/30 01:51:21;;;;;;;2.50;2.30;;;14.10;99.90;;;;;;5115980;28;20528;-57
2022/08/30 01:53:48;;;;;;;2.43;2.20;;;14.10;99.90;;;;;;5116051;28;20445;-57
2022/08/30 01:56:16;;;;;;;4.10;2.40;;;14.10;99.90;;;;;;5115857;28;20564;-57
2022/08/30 01:58:45;;;;;;;2.80;2.27;;;14.00;99.90;;;;;;5115955;28;20524;-58
2022/08/30 02:01:15;;;;;;;2.33;2.20;;;14.00;99.90;;;;;;5115915;28;20536;-57
2022/08/30 02:03:44;;;;;;;2.83;2.63;;;13.90;99.90;;;;;;5116084;28;20446;-57
2022/08/30 02:06:13;;;;;;;3.30;2.40;;;13.90;99.90;;;;;;5115962;28;20524;-57
2022/08/30 02:08:41;;;;;;;2.80;2.60;;;13.90;99.90;;;;;;5115611;28;20924;-57
2022/08/30 02:11:10;;;;;;;4.00;2.70;;;13.90;99.90;;;;;;5115643;28;20528;-57
2022/08/30 02:13:38;;;;;;;2.30;2.10;;;13.80;99.90;;;;;;5115912;28;20473;-57
2022/08/30 02:16:10;;;;;;;3.20;2.73;;;13.80;99.90;;;;;;5115403;28;20484;-57
2022/08/30 02:18:38;;;;;;;2.53;2.30;;;13.70;99.90;;;;;;5115603;28;20516;-57
2022/08/30 02:21:06;;;;;;;2.53;2.33;;;13.70;99.90;;;;;;5116033;28;20442;-57
2022/08/30 02:23:34;;;;;;;2.70;2.40;;;13.70;99.90;;;;;;5115544;28;20533;-57
2022/08/30 02:26:02;;;;;;;2.80;2.30;;;13.70;99.90;;;;;;5115475;28;20468;-56
2022/08/30 02:28:29;;;;;;;3.83;2.67;;;13.70;99.90;;;;;;5115648;28;20488;-57
2022/08/30 02:30:56;;;;;;;3.80;2.73;;;13.70;99.90;;;;;;5115429;28;20885;-56
2022/08/30 02:33:25;;;;;;;4.07;2.80;;;13.70;99.90;;;;;;5115216;28;20536;-58
2022/08/30 02:35:52;;;;;;;3.03;2.73;;;13.60;99.90;;;;;;5115365;28;20568;-58
2022/08/30 02:38:20;;;;;;;4.37;2.93;;;13.60;99.90;;;;;;5114968;28;20469;-58
2022/08/30 02:40:47;;;;;;;4.83;3.33;;;13.60;99.90;;;;;;5115007;28;20524;-56
2022/08/30 02:43:15;;;;;;;3.13;2.40;;;13.60;99.90;;;;;;5115215;28;20502;-57
2022/08/30 02:45:42;;;;;;;3.00;2.80;;;13.50;99.90;;;;;;5115161;28;20524;-58
2022/08/30 02:48:09;;;;;;;4.67;3.43;;;13.50;99.90;;;;;;5114178;28;20505;-57
2022/08/30 02:50:41;;;;;;;3.50;3.20;;;13.50;99.90;;;;;;5114289;28;20943;-57
2022/08/30 02:53:09;;;;;;;3.90;3.40;;;13.50;99.90;;;;;;5114695;28;20462;-57
2022/08/30 02:55:36;;;;;;;2.90;2.70;;;13.50;99.90;;;;;;5115019;28;20487;-57
2022/08/30 02:58:03;;;;;;;3.47;3.07;;;13.50;99.90;;;;;;5114325;28;20568;-57
2022/08/30 03:00:31;;;;;;;3.17;2.80;;;13.60;99.90;;;;;;5114626;28;20531;-57
2022/08/30 03:02:58;;;;;;;6.33;3.40;;;13.60;99.90;;;;;;5115967;28;20446;-57
2022/08/30 03:05:26;;;;;;;5.73;3.90;;;13.60;99.90;;;;;;5114487;28;20497;-57
2022/08/30 03:07:54;;;;;;;3.83;3.47;;;13.60;99.90;;;;;;5114711;28;20541;-58
2022/08/30 03:10:21;;;;;;;4.30;3.93;;;13.60;99.90;;;;;;5114570;28;20540;-57
2022/08/30 03:12:49;;;;;;;5.63;4.87;;;13.60;99.90;;;;;;5114295;28;20445;-57
2022/08/30 03:15:16;;;;;;;7.10;5.67;;;13.60;99.90;;;;;;5114406;28;20512;-58
2022/08/30 03:17:44;;;;;;;5.87;5.27;;;13.60;99.90;;;;;;5114170;28;20903;-56
2022/08/30 03:20:12;;;;;;;7.77;5.90;;;13.60;99.90;;;;;;5114053;28;20449;-56
2022/08/30 03:22:40;;;;;;;9.27;6.77;;;13.60;99.90;;;;;;5114237;28;20449;-56
2022/08/30 03:25:09;;;;;;;9.60;6.10;;;13.50;99.90;;;;;;5114448;28;20528;-56
2022/08/30 03:27:36;;;;;;;19.23;6.83;;;13.50;99.90;;;;;;5114439;28;20479;-56
2022/08/30 03:30:05;;;;;;;6.93;6.13;;;13.50;99.90;;;;;;5114017;28;20540;-56
2022/08/30 03:32:33;;;;;;;7.90;6.53;;;13.50;99.90;;;;;;5113927;28;21004;-56
2022/08/30 03:35:00;;;;;;;6.80;6.10;;;13.50;99.90;;;;;;5114286;28;20492;-56
2022/08/30 03:37:27;;;;;;;8.77;6.50;;;13.50;99.90;;;;;;5114132;28;20465;-57
2022/08/30 03:39:55;;;;;;;9.50;6.73;;;13.60;99.90;;;;;;5114016;28;20545;-56
2022/08/30 03:42:24;;;;;;;7.23;6.33;;;13.60;99.90;;;;;;5113934;28;20502;-57
2022/08/30 03:44:51;;;;;;;6.07;5.47;;;13.70;99.90;;;;;;5113647;28;20446;-57
2022/08/30 03:47:19;;;;;;;9.23;7.20;;;13.70;99.90;;;;;;5114147;28;20461;-57
2022/08/30 03:49:46;;;;;;;6.57;5.97;;;13.70;99.90;;;;;;5113916;28;20445;-57
2022/08/30 03:52:14;;;;;;;7.13;6.43;;;13.70;99.90;;;;;;5113884;28;20884;-56
2022/08/30 03:54:41;;;;;;;8.83;6.67;;;13.70;99.90;;;;;;5113548;28;20532;-57
2022/08/30 03:57:08;;;;;;;7.33;6.60;;;13.80;99.90;;;;;;5113392;28;20579;-56
2022/08/30 03:59:37;;;;;;;7.13;6.40;;;13.80;99.90;;;;;;5113401;28;20811;-56
2022/08/30 04:02:04;;;;;;;7.80;6.50;;;13.80;99.90;;;;;;5113738;28;20552;-57
2022/08/30 04:04:31;;;;;;;7.53;6.27;;;13.80;99.90;;;;;;5114291;28;20448;-57
2022/08/30 04:10:11;;;;;;;7.30;6.60;;;13.80;99.90;;;;;;5131370;27;20554;-57
2022/08/30 04:12:38;;;;;;;9.03;7.00;;;13.80;99.90;;;;;;5130787;28;20995;-58
2022/08/30 04:15:06;;;;;;;7.40;6.40;;;13.90;99.90;;;;;;5130696;28;20532;-57
2022/08/30 04:17:34;;;;;;;7.70;6.87;;;13.80;99.90;;;;;;5119629;28;20468;-56
2022/08/30 04:20:01;;;;;;;8.00;6.67;;;13.80;99.90;;;;;;5110484;28;20948;-56
2022/08/30 04:22:28;;;;;;;7.73;7.03;;;13.80;99.90;;;;;;5121100;28;20483;-56
2022/08/30 04:24:55;;;;;;;8.10;7.30;;;13.90;99.90;;;;;;5130320;28;20444;-57
2022/08/30 04:27:24;;;;;;;7.73;6.17;;;13.90;99.90;;;;;;5129178;28;20596;-56
2022/08/30 04:29:52;;;;;;;7.93;7.13;;;13.80;99.90;;;;;;5130499;28;20918;-57
2022/08/30 04:32:20;;;;;;;7.83;7.03;;;13.90;99.90;;;;;;5121393;27;20455;-57
2022/08/30 04:34:47;;;;;;;9.10;8.20;;;13.90;99.90;;;;;;5121893;28;20503;-56
2022/08/30 04:37:15;;;;;;;7.27;6.57;;;13.90;99.90;;;;;;5129955;27;21018;-57
2022/08/30 04:39:43;;;;;;;8.63;7.27;;;13.90;99.90;;;;;;5130595;27;20441;-57
2022/08/30 04:42:10;;;;;;;7.07;6.20;;;14.00;99.90;;;;;;5130478;28;20448;-57
2022/08/30 04:44:39;;;;;;;7.10;6.47;;;13.90;99.90;;;;;;5120397;28;20446;-57
2022/08/30 04:47:07;;;;;;;7.20;6.40;;;13.90;99.90;;;;;;5126570;28;20987;-57
2022/08/30 04:49:34;;;;;;;8.20;7.13;;;13.90;99.90;;;;;;5120318;27;20976;-56
2022/08/30 04:52:01;;;;;;;7.27;6.23;;;13.80;99.90;;;;;;5110803;28;20442;-56
2022/08/30 04:54:28;;;;;;;8.10;7.30;;;13.80;99.90;;;;;;5123060;28;20527;-56
2022/08/30 04:56:56;;;;;;;7.00;6.30;;;13.80;99.90;;;;;;5133069;28;20467;-56
2022/08/30 04:59:23;;;;;;;9.33;6.70;;;13.80;99.90;;;;;;5132261;28;20800;-56
2022/08/30 05:01:51;;;;;;;7.17;6.43;;;13.90;99.90;;;;;;5130148;28;20527;-56
2022/08/30 05:04:19;;;;;;;8.10;6.93;;;13.90;99.90;;;;;;5127859;28;20532;-56
2022/08/30 05:06:46;;;;;;;7.27;6.50;;;14.00;99.90;;;;;;5109532;28;20541;-58
2022/08/30 05:09:13;;;;;;;7.20;6.50;;;14.00;99.90;;;;;;5116238;28;21046;-57
2022/08/30 05:11:42;;;;;;;6.53;5.83;;;14.10;99.90;;;;;;5111361;28;20449;-56
2022/08/30 05:14:10;;;;;;;6.80;6.17;;;14.10;99.90;;;;;;5109620;28;20548;-56
2022/08/30 05:16:37;;;;;;;7.40;6.07;;;14.10;99.90;;;;;;5109899;28;20964;-56
2022/08/30 05:19:06;;;;;;;7.63;6.13;;;14.10;99.90;;;;;;5111127;28;20445;-56
2022/08/30 05:21:34;;;;;;;6.83;5.50;;;14.20;99.90;;;;;;5096040;28;20917;-57
2022/08/30 05:24:02;;;;;;;6.80;6.20;;;14.30;99.90;;;;;;5095883;28;20446;-55
2022/08/30 05:26:32;;;;;;;5.70;5.17;;;14.30;99.90;;;;;;5098909;28;20453;-57
2022/08/30 05:28:59;;;;;;;6.83;6.13;;;14.40;99.90;;;;;;5116118;28;20477;-55
2022/08/30 05:31:29;;;;;;;7.67;6.57;;;14.50;99.90;;;;;;5116267;28;20842;-56
2022/08/30 05:33:57;;;;;;;8.20;7.30;;;14.50;99.90;;;;;;5116203;27;20441;-56
2022/08/30 05:36:32;;;;;;;7.43;6.27;;;14.60;99.90;;;;;;5115920;28;20449;-56
2022/08/30 05:39:00;;;;;;;9.33;6.33;;;14.50;99.90;;;;;;5116140;28;20888;-56
2022/08/30 05:41:28;;;;;;;11.03;7.07;;;14.50;99.90;;;;;;5116090;28;20452;-56
2022/08/30 05:43:57;;;;;;;9.37;7.10;;;14.50;99.90;;;;;;5116271;28;20450;-56
2022/08/30 05:46:28;;;;;;;8.60;6.60;;;14.50;99.90;;;;;;5116179;28;20437;-55
2022/08/30 05:48:56;;;;;;;11.60;7.00;;;14.40;99.90;;;;;;5115870;28;20609;-57
2022/08/30 05:51:27;;;;;;;10.10;7.07;;;14.40;99.90;;;;;;5116043;28;20916;-56
2022/08/30 05:53:56;;;;;;;11.70;8.20;;;14.40;99.90;;;;;;5116017;28;20882;-56
2022/08/30 05:56:26;;;;;;;11.07;7.57;;;14.50;99.90;;;;;;5115834;27;20941;-56
2022/08/30 05:58:54;;;;;;;10.30;7.80;;;14.50;99.90;;;;;;5112477;28;20439;-57
2022/08/30 06:01:23;;;;;;;9.70;7.67;;;14.60;99.90;;;;;;5107978;28;20481;-57
2022/08/30 06:03:51;;;;;;;11.60;8.47;;;14.70;99.90;;;;;;5115647;28;20441;-56
2022/08/30 06:06:18;;;;;;;11.60;6.87;;;14.70;99.90;;;;;;5116175;28;20473;-57
2022/08/30 06:08:48;;;;;;;10.17;7.00;;;14.80;99.90;;;;;;5101193;28;20555;-57
2022/08/30 06:11:18;;;;;;;11.07;7.93;;;14.90;99.90;;;;;;5095536;28;20478;-55
2022/08/30 06:13:46;;;;;;;9.37;7.40;;;15.00;99.90;;;;;;5095548;28;20443;-55
2022/08/30 06:16:15;;;;;;;9.97;8.37;;;15.20;99.90;;;;;;5111326;28;20445;-57
2022/08/30 06:18:42;;;;;;;11.47;8.17;;;15.30;99.90;;;;;;5095139;28;20474;-57
2022/08/30 06:21:15;;;;;;;9.13;7.70;;;15.40;99.90;;;;;;5095385;28;20529;-57
2022/08/30 06:23:43;;;;;;;10.23;7.43;;;15.40;99.90;;;;;;5108180;28;20470;-57
2022/08/30 06:26:12;;;;;;;8.97;6.77;;;15.40;99.90;;;;;;5105943;28;20534;-57
2022/08/30 06:28:39;;;;;;;9.80;7.57;;;15.40;99.90;;;;;;5115139;28;20536;-57
2022/08/30 06:31:07;;;;;;;13.57;8.07;;;15.40;99.90;;;;;;5103500;28;20438;-57
2022/08/30 06:33:35;;;;;;;10.40;8.33;;;15.40;99.90;;;;;;5094968;28;20453;-56
2022/08/30 06:36:03;;;;;;;10.37;8.87;;;15.40;99.90;;;;;;5095760;28;20465;-56
2022/08/30 06:38:30;;;;;;;13.80;7.80;;;15.40;99.90;;;;;;5095633;28;20466;-56
2022/08/30 06:40:58;;;;;;;8.77;7.43;;;15.40;99.90;;;;;;5094546;28;20551;-56
2022/08/30 06:43:27;;;;;;;11.33;8.30;;;15.50;99.90;;;;;;5094711;28;20489;-56
2022/08/30 06:45:55;;;;;;;12.50;9.40;;;15.60;99.90;;;;;;5097685;28;20945;-56
2022/08/30 06:48:22;;;;;;;12.53;10.13;;;15.60;99.90;;;;;;5105463;28;20474;-57
2022/08/30 06:50:54;;;;;;;10.20;7.80;;;15.60;99.90;;;;;;5096654;28;20560;-56
2022/08/30 06:53:21;;;;;;;10.33;7.80;;;15.70;99.90;;;;;;5114341;28;20440;-54
2022/08/30 06:55:56;;;;;;;9.37;7.87;;;15.80;99.90;;;;;;5114569;28;20528;-56
2022/08/30 06:58:23;;;;;;;11.93;8.70;;;15.80;99.90;;;;;;5109769;22;20493;-61
2022/08/30 07:00:52;;;;;;;12.33;8.73;;;15.90;99.90;;;;;;5073394;28;20531;-60
2022/08/30 07:03:19;;;;;;;10.77;8.30;;;16.00;99.90;;;;;;5073963;28;20550;-60
2022/08/30 07:05:48;;;;;;;13.70;8.10;;;16.00;99.90;;;;;;5073585;28;20500;-59
2022/08/30 07:08:16;;;;;;;11.60;7.90;;;16.10;99.90;;;;;;5060371;28;20472;-59
2022/08/30 07:10:44;;;;;;;10.43;7.80;;;16.10;99.90;;;;;;5053568;28;20559;-59
2022/08/30 07:13:12;;;;;;;11.83;7.97;;;16.10;99.90;;;;;;5053628;28;20458;-60
2022/08/30 07:15:42;;;;;;;11.33;9.03;;;16.20;99.90;;;;;;5053755;28;20867;-59
2022/08/30 07:20:56;;;;;;;10.23;8.77;;;16.20;99.90;;;;;;5054232;28;20401;-61
2022/08/30 07:23:24;;;;;;;12.20;9.87;;;16.20;99.90;;;;;;5053569;28;20547;-60
2022/08/30 07:25:51;;;;;;;10.80;8.63;;;16.20;99.90;;;;;;5053865;28;20502;-58
2022/08/30 07:28:18;;;;;;;11.70;9.60;;;16.20;99.90;;;;;;5054809;28;20474;-59
2022/08/30 07:30:45;;;;;;;15.73;9.90;;;16.30;99.90;;;;;;5053609;28;20476;-59
2022/08/30 07:33:14;;;;;;;14.60;9.57;;;16.40;99.90;;;;;;5053690;28;20531;-60
2022/08/30 07:35:42;;;;;;;12.20;8.60;;;16.40;99.90;;;;;;5053392;28;20531;-60
2022/08/30 07:38:13;;;;;;;20.23;10.00;;;16.40;99.90;;;;;;5053619;28;20484;-60
2022/08/30 07:40:40;;;;;;;22.60;11.40;;;16.40;99.90;;;;;;5053933;28;20758;-61
2022/08/30 07:43:07;;;;;;;20.13;11.13;;;16.40;99.90;;;;;;5053143;28;20963;-60
2022/08/30 07:45:36;;;;;;;24.50;11.07;;;16.40;99.90;;;;;;5053574;28;20554;-59
2022/08/30 07:48:04;;;;;;;16.30;9.23;;;16.50;99.90;;;;;;5053443;28;21037;-60
2022/08/30 07:50:33;;;;;;;13.50;8.60;;;16.50;99.90;;;;;;5052607;28;20652;-59
2022/08/30 07:53:00;;;;;;;13.47;8.90;;;16.60;99.90;;;;;;5053500;28;20579;-60
2022/08/30 07:55:28;;;;;;;12.37;9.20;;;16.80;99.90;;;;;;5053115;28;20943;-60
2022/08/30 07:57:55;;;;;;;15.23;9.83;;;17.00;99.90;;;;;;5052922;28;20516;-60
2022/08/30 08:00:22;;;;;;;15.33;10.33;;;17.10;99.90;;;;;;5053781;28;20530;-59
2022/08/30 08:02:49;;;;;;;13.77;10.33;;;17.30;99.90;;;;;;5053831;28;20510;-61
2022/08/30 08:05:17;;;;;;;14.60;10.53;;;17.40;99.90;;;;;;5053477;28;20480;-59
2022/08/30 08:07:46;;;;;;;18.77;11.77;;;17.50;99.90;;;;;;5053029;28;21054;-59
2022/08/30 08:10:13;;;;;;;16.07;11.97;;;17.50;99.90;;;;;;5052989;28;20575;-59
2022/08/30 08:12:40;;;;;;;17.77;12.23;;;17.50;99.90;;;;;;5053200;28;20526;-59
2022/08/30 08:15:08;;;;;;;16.03;11.40;;;17.60;99.90;;;;;;5053226;28;20499;-60
2022/08/30 08:17:36;;;;;;;20.43;11.50;;;17.70;99.90;;;;;;5052873;28;20551;-60
2022/08/30 08:20:04;;;;;;;19.40;11.63;;;17.70;99.90;;;;;;5052912;28;20871;-60
2022/08/30 08:22:31;;;;;;;19.13;12.97;;;17.70;99.90;;;;;;5053453;28;20506;-59
2022/08/30 08:25:00;;;;;;;19.63;12.23;;;17.80;99.90;;;;;;5053723;28;20498;-60
2022/08/30 08:27:27;;;;;;;17.17;12.30;;;17.90;99.90;;;;;;5053102;28;20464;-59
2022/08/30 08:29:55;;;;;;;16.10;12.40;;;17.90;99.90;;;;;;5053320;28;20526;-58
2022/08/30 08:32:22;;;;;;;15.63;12.03;;;17.90;99.90;;;;;;5053784;28;20456;-59
2022/08/30 08:34:49;;;;;;;17.80;12.77;;;17.90;99.90;;;;;;5052953;28;20459;-60
2022/08/30 08:37:17;;;;;;;17.57;12.97;;;17.90;99.90;;;;;;5052549;28;20901;-60
2022/08/30 08:39:44;;;;;;;19.87;14.67;;;17.80;99.90;;;;;;5053049;28;20444;-59
2022/08/30 08:42:22;;;;;;;21.57;12.87;;;17.80;99.90;;;;;;5052463;28;20432;-60
2022/08/30 08:44:58;;;;;;;21.70;14.30;;;17.80;99.90;;;;;;5052487;28;20432;-61
2022/08/30 08:47:30;;;;;;;20.20;13.07;;;17.80;99.90;;;;;;5052738;28;20554;-61
2022/08/30 08:50:02;;;;;;;23.80;14.13;;;17.90;99.90;;;;;;5052467;28;20478;-59
2022/08/30 08:55:23;;;;;;;25.27;14.90;;;17.90;99.90;;;;;;5054242;28;20451;-60
2022/08/30 08:57:52;;;;;;;21.33;14.97;;;18.00;99.90;;;;;;5056511;28;20567;-59
2022/08/30 09:00:19;;;;;;;20.30;12.60;;;18.10;99.90;;;;;;5056267;28;20448;-60
2022/08/30 09:02:48;;;;;;;21.13;15.07;;;18.20;99.90;;;;;;5056269;28;20920;-61
2022/08/30 09:05:18;;;;;;;19.43;13.00;;;18.40;99.90;;;;;;5056048;28;20452;-60
2022/08/30 09:07:50;;;;;;;16.33;12.67;;;18.40;99.90;;;;;;5055937;28;20495;-60
2022/08/30 09:10:18;;;;;;;18.70;13.63;;;18.60;99.90;;;;;;5056155;28;20557;-60
2022/08/30 09:12:45;;;;;;;17.90;13.27;;;18.60;99.90;;;;;;5057102;28;20479;-61
2022/08/30 09:15:19;;;;;;;19.20;12.70;;;18.70;99.90;;;;;;5056639;28;20501;-60
2022/08/30 09:17:52;;;;;;;17.63;14.10;;;18.60;99.90;;;;;;5056289;28;20507;-60
2022/08/30 09:20:31;;;;;;;19.17;13.90;;;18.70;99.90;;;;;;5055812;28;20460;-60
2022/08/30 09:23:10;;;;;;;20.10;13.67;;;18.60;99.90;;;;;;5055571;28;20523;-60
2022/08/30 09:25:38;;;;;;;14.93;9.97;;;18.70;99.90;;;;;;5056219;28;20432;-61
2022/08/30 09:28:11;;;;;;;9.77;7.53;;;18.80;99.80;;;;;;5056888;28;20479;-59
2022/08/30 09:30:48;;;;;;;8.47;5.80;;;18.90;99.10;;;;;;5056821;28;20476;-60
2022/08/30 09:33:21;;;;;;;9.70;8.17;;;18.80;98.80;;;;;;5056374;28;20424;-58
2022/08/30 09:35:50;;;;;;;8.53;7.33;;;18.80;98.90;;;;;;5056140;28;20508;-60
2022/08/30 09:38:21;;;;;;;7.60;6.80;;;18.90;99.00;;;;;;5055098;28;20506;-60
2022/08/30 09:40:50;;;;;;;6.17;5.50;;;18.90;98.50;;;;;;5055481;28;20437;-60
2022/08/30 09:43:22;;;;;;;5.17;4.67;;;18.90;98.40;;;;;;5055014;28;20429;-59
2022/08/30 09:46:07;;;;;;;6.00;5.07;;;18.80;98.50;;;;;;5054956;28;20519;-60
2022/08/30 09:48:38;;;;;;;7.03;5.80;;;18.80;98.70;;;;;;5054750;28;20547;-59
2022/08/30 09:51:33;;;;;;;6.63;5.30;;;18.90;98.60;;;;;;5054912;28;20570;-59
2022/08/30 09:54:10;;;;;;;6.33;5.30;;;18.90;98.40;;;;;;5054559;28;20506;-60
2022/08/30 09:56:43;;;;;;;4.77;4.37;;;18.90;98.20;;;;;;5054501;28;20424;-59
2022/08/30 09:59:19;;;;;;;4.63;4.23;;;18.80;98.00;;;;;;5054789;28;20434;-58
2022/08/30 10:01:53;;;;;;;5.70;5.20;;;18.80;98.10;;;;;;5054682;28;20519;-58
2022/08/30 10:04:28;;;;;;;11.37;8.60;;;18.80;98.30;;;;;;5054807;28;20503;-58
2022/08/30 10:07:03;;;;;;;7.20;6.43;;;18.80;98.10;;;;;;5054628;28;20424;-59
2022/08/30 10:09:37;;;;;;;5.97;5.37;;;18.70;98.10;;;;;;5054356;28;20519;-57
2022/08/30 10:12:12;;;;;;;6.27;5.67;;;18.60;98.20;;;;;;5054220;28;20965;-59
2022/08/30 10:15:02;;;;;;;7.83;5.33;;;18.50;98.60;;;;;;5054824;28;20518;-60
2022/08/30 10:17:47;;;;;;;5.33;4.83;;;18.40;99.10;;;;;;5054173;28;20543;-60
2022/08/30 10:20:23;;;;;;;6.77;5.97;;;18.40;99.30;;;;;;5054651;28;20424;-59
2022/08/30 10:22:56;;;;;;;5.70;5.10;;;18.50;99.50;;;;;;5055251;28;20425;-59
2022/08/30 10:25:26;;;;;;;6.10;5.50;;;18.50;99.20;;;;;;5056525;28;20464;-60
2022/08/30 10:27:59;;;;;;;5.47;4.97;;;18.60;99.20;;;;;;5054548;28;20550;-59
2022/08/30 10:30:27;;;;;;;5.83;5.03;;;18.70;99.00;;;;;;5054321;28;20468;-60
2022/08/30 10:33:03;;;;;;;5.83;4.83;;;18.80;98.70;;;;;;5055702;28;21108;-59
2022/08/30 10:35:36;;;;;;;5.20;4.67;;;18.90;98.50;;;;;;5054779;28;20797;-60
2022/08/30 10:38:09;;;;;;;5.30;4.80;;;19.10;98.00;;;;;;5054154;28;20651;-60
2022/08/30 10:43:30;;;;;;;4.80;4.30;;;19.40;96.80;;;;;;5054401;28;20419;-60
2022/08/30 10:46:03;;;;;;;7.40;5.50;;;19.50;96.70;;;;;;5055797;28;20428;-59
2022/08/30 10:48:38;;;;;;;5.37;4.87;;;19.70;96.30;;;;;;5056495;28;20503;-60
2022/08/30 10:51:14;;;;;;;4.50;4.07;;;19.70;96.10;;;;;;5055535;28;20467;-60
2022/08/30 10:53:45;;;;;;;6.43;5.80;;;19.70;95.70;;;;;;5056922;28;20518;-60
2022/08/30 10:56:17;;;;;;;5.83;5.33;;;19.70;95.70;;;;;;5055891;28;20503;-60
2022/08/30 10:58:44;;;;;;;5.27;4.77;;;19.90;95.50;;;;;;5054980;28;20590;-60
2022/08/30 11:01:37;;;;;;;5.80;5.30;;;20.10;94.80;;;;;;5053901;28;20531;-60
2022/08/30 11:04:37;;;;;;;5.10;4.40;;;20.10;93.90;;;;;;5051113;28;20526;-61
2022/08/30 11:07:21;;;;;;;5.30;4.80;;;20.00;93.80;;;;;;5043340;28;20556;-60
2022/08/30 11:10:07;;;;;;;6.10;5.50;;;20.00;93.80;;;;;;5053976;28;20456;-60
2022/08/30 11:12:39;;;;;;;6.70;5.10;;;20.10;93.60;;;;;;5053886;28;20955;-61
2022/08/30 11:15:18;;;;;;;4.90;4.50;;;20.20;93.30;;;;;;5054337;28;20516;-59
2022/08/30 11:17:54;;;;;;;4.90;4.47;;;20.50;93.00;;;;;;5057387;28;20460;-60
2022/08/30 11:20:28;;;;;;;5.10;4.60;;;20.70;92.20;;;;;;5060271;28;20440;-59
2022/08/30 11:23:29;;;;;;;4.87;4.40;;;20.80;91.30;;;;;;5054440;28;20464;-60
2022/08/30 11:25:58;;;;;;;3.80;3.50;;;20.80;90.70;;;;;;5054445;28;20827;-61
2022/08/30 11:29:00;;;;;;;5.57;4.40;;;20.90;90.50;;;;;;5053986;28;20476;-60
2022/08/30 11:31:36;;;;;;;4.37;3.97;;;21.10;90.10;;;;;;5052807;28;20559;-61
2022/08/30 11:34:03;;;;;;;5.13;4.63;;;21.30;89.20;;;;;;5053348;28;20521;-59
2022/08/30 11:37:07;;;;;;;4.27;3.87;;;21.40;87.40;;;;;;5053000;28;20450;-60
2022/08/30 11:39:54;;;;;;;3.47;3.20;;;21.40;85.60;;;;;;5053150;28;20787;-60
2022/08/30 11:42:41;;;;;;;4.30;3.90;;;21.30;85.00;;;;;;5052660;28;20516;-61
2022/08/30 11:45:47;;;;;;;3.57;3.10;;;21.10;84.70;;;;;;5052594;28;20437;-61
2022/08/30 11:48:43;;;;;;;3.87;3.53;;;21.10;84.60;;;;;;5052758;28;20545;-60
2022/08/30 11:51:35;;;;;;;3.67;3.37;;;21.30;83.40;;;;;;5052667;28;20540;-59
2022/08/30 11:54:12;;;;;;;2.87;2.53;;;21.70;81.70;;;;;;5008773;28;20484;-60
2022/08/30 11:56:52;;;;;;;4.90;3.20;;;22.10;78.80;;;;;;5052776;28;20859;-60
2022/08/30 11:59:28;;;;;;;2.80;2.60;;;22.40;77.30;;;;;;5052548;28;20423;-59
2022/08/30 12:01:56;;;;;;;4.13;2.70;;;22.80;73.90;;;;;;5052674;28;20433;-58
2022/08/30 12:04:36;;;;;;;4.53;3.03;;;23.20;71.50;;;;;;5052203;28;20880;-58
2022/08/30 12:07:05;;;;;;;2.97;2.57;;;23.60;69.10;;;;;;5052177;28;20519;-58
2022/08/30 12:10:04;;;;;;;3.13;2.83;;;23.90;67.30;;;;;;5052471;28;20492;-59
2022/08/30 12:12:53;;;;;;;3.40;2.87;;;24.50;65.40;;;;;;5052790;28;21036;-59
2022/08/30 12:15:56;;;;;;;3.73;2.27;;;25.10;63.00;;;;;;5052579;28;20458;-58
2022/08/30 12:18:37;;;;;;;2.97;2.13;;;25.30;60.70;;;;;;5027654;28;20522;-58
2022/08/30 12:21:14;;;;;;;3.20;1.93;;;25.10;59.40;;;;;;5051962;28;20479;-59
2022/08/30 12:23:50;;;;;;;3.90;2.20;;;24.80;59.80;;;;;;5052110;28;20428;-60
2022/08/30 12:26:29;;;;;;;2.37;2.13;;;24.40;59.50;;;;;;5052937;28;20914;-58
2022/08/30 12:29:10;;;;;;;3.03;2.10;;;23.90;60.00;;;;;;5052257;28;20463;-58
2022/08/30 12:31:41;;;;;;;6.37;3.13;;;23.50;61.00;;;;;;5055974;28;20462;-58
2022/08/30 12:34:09;;;;;;;4.63;3.00;;;23.30;62.00;;;;;;5056181;28;20483;-59
2022/08/30 12:36:39;;;;;;;4.07;2.60;;;23.30;62.50;;;;;;5056658;28;20545;-57
2022/08/30 12:39:14;;;;;;;2.90;2.00;;;23.40;62.50;;;;;;5058380;28;20438;-58
2022/08/30 12:41:43;;;;;;;2.30;2.10;;;23.50;62.10;;;;;;5056638;28;20459;-59
2022/08/30 12:44:17;;;;;;;2.57;2.00;;;23.50;62.30;;;;;;5057546;28;20456;-58
2022/08/30 12:46:48;;;;;;;2.60;2.40;;;23.60;62.30;;;;;;5055564;28;20428;-59
2022/08/30 12:49:17;;;;;;;2.63;2.00;;;23.60;61.80;;;;;;5056487;28;20439;-59
2022/08/30 12:51:45;;;;;;;4.33;2.10;;;23.40;61.70;;;;;;5055946;28;20480;-58
2022/08/30 12:54:19;;;;;;;2.77;2.13;;;23.20;61.70;;;;;;5055878;28;20451;-59
2022/08/30 12:56:56;;;;;;;3.03;1.97;;;23.20;61.80;;;;;;5056087;28;20892;-58
2022/08/30 12:59:47;;;;;;;2.20;2.00;;;23.20;61.50;;;;;;5057492;28;20519;-58
2022/08/30 13:02:17;;;;;;;2.27;2.07;;;23.20;61.10;;;;;;5056893;28;20517;-58
2022/08/30 13:04:47;;;;;;;2.43;2.10;;;23.30;61.10;;;;;;5056169;28;20994;-57
2022/08/30 13:07:33;;;;;;;2.10;1.60;;;23.30;60.70;;;;;;5057314;28;20478;-58
2022/08/30 13:10:13;;;;;;;3.20;2.30;;;23.30;60.10;;;;;;5055838;28;20530;-58
2022/08/30 13:12:40;;;;;;;4.70;2.17;;;23.20;60.20;;;;;;5055490;28;20460;-59
2022/08/30 13:15:16;;;;;;;4.20;1.90;;;23.40;60.20;;;;;;5055032;28;20546;-58